sensor_id;sensor_type;location;lat;lon;timestamp;P1;durP1;ratioP1;P2;durP2;ratioP2
2019;SDS011;1014;51.960;8.542;2023-08-12T00:01:45;22.43;;;20.83;;
2019;SDS011;1014;51.960;8.542;2023-08-12T00:04:12;21.57;;;20.20;;
2019;SDS011;1014;51.960;8.542;2023-08-12T00:06:40;22.37;;;20.93;;
2019;SDS011;1014;51.960;8.542;2023-08-12T00:09:07;21.60;;;20.20;;
2019;SDS011;1014;51.960;8.542;2023-08-12T00:11:35;21.83;;;20.63;;
2019;SDS011;1014;51.960;8.542;2023-08-12T00:14:03;21.10;;;20.00;;
2019;SDS011;1014;51.960;8.542;2023-08-12T00:16:31;22.03;;;20.77;;
2019;SDS011;1014;51.960;8.542;2023-08-12T00:18:58;22.07;;;20.73;;
2019;SDS011;1014;51.960;8.542;2023-08-12T00:21:25;21.50;;;20.30;;
2019;SDS011;1014;51.960;8.542;2023-08-12T00:23:52;22.00;;;20.57;;
2019;SDS011;1014;51.960;8.542;2023-08-12T00:26:20;22.17;;;20.97;;
2019;SDS011;1014;51.960;8.542;2023-08-12T00:28:48;21.00;;;19.90;;
2019;SDS011;1014;51.960;8.542;2023-08-12T00:31:17;21.30;;;20.00;;
2019;SDS011;1014;51.960;8.542;2023-08-12T00:33:44;21.27;;;20.07;;
2019;SDS011;1014;51.960;8.542;2023-08-12T00:36:12;20.67;;;19.47;;
2019;SDS011;1014;51.960;8.542;2023-08-12T00:38:39;20.97;;;19.73;;
2019;SDS011;1014;51.960;8.542;2023-08-12T00:41:06;21.40;;;20.10;;
2019;SDS011;1014;51.960;8.542;2023-08-12T00:43:33;20.20;;;19.20;;
2019;SDS011;1014;51.960;8.542;2023-08-12T00:46:00;22.23;;;21.03;;
2019;SDS011;1014;51.960;8.542;2023-08-12T00:48:29;22.30;;;20.77;;
2019;SDS011;1014;51.960;8.542;2023-08-12T00:50:56;21.77;;;20.47;;
2019;SDS011;1014;51.960;8.542;2023-08-12T00:53:23;20.93;;;19.83;;
2019;SDS011;1014;51.960;8.542;2023-08-12T00:55:50;21.80;;;20.40;;
2019;SDS011;1014;51.960;8.542;2023-08-12T00:58:17;22.67;;;21.30;;
2019;SDS011;1014;51.960;8.542;2023-08-12T01:00:44;23.47;;;21.97;;
2019;SDS011;1014;51.960;8.542;2023-08-12T01:03:12;26.03;;;21.77;;
2019;SDS011;1014;51.960;8.542;2023-08-12T01:05:42;22.67;;;21.07;;
2019;SDS011;1014;51.960;8.542;2023-08-12T01:08:09;22.10;;;20.80;;
2019;SDS011;1014;51.960;8.542;2023-08-12T01:10:36;22.30;;;21.10;;
2019;SDS011;1014;51.960;8.542;2023-08-12T01:13:08;22.70;;;21.40;;
2019;SDS011;1014;51.960;8.542;2023-08-12T01:15:38;22.67;;;20.97;;
2019;SDS011;1014;51.960;8.542;2023-08-12T01:18:06;22.77;;;21.43;;
2019;SDS011;1014;51.960;8.542;2023-08-12T01:20:34;22.33;;;20.93;;
2019;SDS011;1014;51.960;8.542;2023-08-12T01:23:08;23.60;;;22.30;;
2019;SDS011;1014;51.960;8.542;2023-08-12T01:25:36;23.27;;;21.53;;
2019;SDS011;1014;51.960;8.542;2023-08-12T01:28:03;23.60;;;22.20;;
2019;SDS011;1014;51.960;8.542;2023-08-12T01:30:30;26.63;;;24.60;;
2019;SDS011;1014;51.960;8.542;2023-08-12T01:33:00;25.30;;;23.40;;
2019;SDS011;1014;51.960;8.542;2023-08-12T01:35:30;24.30;;;22.40;;
2019;SDS011;1014;51.960;8.542;2023-08-12T01:37:59;26.63;;;24.37;;
2019;SDS011;1014;51.960;8.542;2023-08-12T01:40:30;26.67;;;24.37;;
2019;SDS011;1014;51.960;8.542;2023-08-12T01:42:58;26.00;;;23.90;;
2019;SDS011;1014;51.960;8.542;2023-08-12T01:45:25;25.33;;;23.63;;
2019;SDS011;1014;51.960;8.542;2023-08-12T01:47:52;28.23;;;26.03;;
2019;SDS011;1014;51.960;8.542;2023-08-12T01:50:19;28.90;;;26.57;;
2019;SDS011;1014;51.960;8.542;2023-08-12T01:52:47;29.83;;;27.20;;
2019;SDS011;1014;51.960;8.542;2023-08-12T01:55:14;28.77;;;26.47;;
2019;SDS011;1014;51.960;8.542;2023-08-12T01:57:43;32.00;;;29.60;;
2019;SDS011;1014;51.960;8.542;2023-08-12T02:00:10;37.90;;;35.00;;
2019;SDS011;1014;51.960;8.542;2023-08-12T02:02:37;40.47;;;37.40;;
2019;SDS011;1014;51.960;8.542;2023-08-12T02:05:04;44.33;;;40.87;;
2019;SDS011;1014;51.960;8.542;2023-08-12T02:07:32;49.40;;;45.07;;
2019;SDS011;1014;51.960;8.542;2023-08-12T02:09:59;51.40;;;46.90;;
2019;SDS011;1014;51.960;8.542;2023-08-12T02:12:34;116.37;;;51.90;;
2019;SDS011;1014;51.960;8.542;2023-08-12T02:15:02;108.07;;;97.37;;
2019;SDS011;1014;51.960;8.542;2023-08-12T02:17:30;115.90;;;105.50;;
2019;SDS011;1014;51.960;8.542;2023-08-12T02:19:57;102.67;;;95.57;;
2019;SDS011;1014;51.960;8.542;2023-08-12T02:22:24;102.70;;;94.43;;
2019;SDS011;1014;51.960;8.542;2023-08-12T02:24:51;96.80;;;88.77;;
2019;SDS011;1014;51.960;8.542;2023-08-12T02:27:18;89.67;;;82.80;;
2019;SDS011;1014;51.960;8.542;2023-08-12T02:29:45;88.27;;;82.20;;
2019;SDS011;1014;51.960;8.542;2023-08-12T02:32:13;88.97;;;83.07;;
2019;SDS011;1014;51.960;8.542;2023-08-12T02:34:40;84.37;;;78.90;;
2019;SDS011;1014;51.960;8.542;2023-08-12T02:37:07;91.70;;;85.00;;
2019;SDS011;1014;51.960;8.542;2023-08-12T02:39:34;91.30;;;84.77;;
2019;SDS011;1014;51.960;8.542;2023-08-12T02:42:02;92.73;;;86.43;;
2019;SDS011;1014;51.960;8.542;2023-08-12T02:44:42;93.13;;;86.43;;
2019;SDS011;1014;51.960;8.542;2023-08-12T02:47:09;87.67;;;81.07;;
2019;SDS011;1014;51.960;8.542;2023-08-12T02:49:38;88.63;;;82.30;;
2019;SDS011;1014;51.960;8.542;2023-08-12T02:52:05;95.23;;;88.23;;
2019;SDS011;1014;51.960;8.542;2023-08-12T02:54:32;87.57;;;81.90;;
2019;SDS011;1014;51.960;8.542;2023-08-12T02:56:59;92.07;;;85.27;;
2019;SDS011;1014;51.960;8.542;2023-08-12T02:59:26;93.43;;;85.90;;
2019;SDS011;1014;51.960;8.542;2023-08-12T03:01:55;94.47;;;87.57;;
2019;SDS011;1014;51.960;8.542;2023-08-12T03:04:22;96.10;;;89.53;;
2019;SDS011;1014;51.960;8.542;2023-08-12T03:06:51;88.07;;;81.43;;
2019;SDS011;1014;51.960;8.542;2023-08-12T03:09:18;97.23;;;89.80;;
2019;SDS011;1014;51.960;8.542;2023-08-12T03:11:45;97.07;;;89.23;;
2019;SDS011;1014;51.960;8.542;2023-08-12T03:14:21;99.40;;;91.53;;
2019;SDS011;1014;51.960;8.542;2023-08-12T03:16:48;100.90;;;93.07;;
2019;SDS011;1014;51.960;8.542;2023-08-12T03:19:15;101.27;;;93.17;;
2019;SDS011;1014;51.960;8.542;2023-08-12T03:21:42;104.80;;;95.57;;
2019;SDS011;1014;51.960;8.542;2023-08-12T03:24:12;105.00;;;95.70;;
2019;SDS011;1014;51.960;8.542;2023-08-12T03:26:39;99.97;;;91.20;;
2019;SDS011;1014;51.960;8.542;2023-08-12T03:29:06;101.90;;;93.30;;
2019;SDS011;1014;51.960;8.542;2023-08-12T03:31:33;96.60;;;89.20;;
2019;SDS011;1014;51.960;8.542;2023-08-12T03:34:00;95.20;;;87.17;;
2019;SDS011;1014;51.960;8.542;2023-08-12T03:36:27;103.17;;;93.87;;
2019;SDS011;1014;51.960;8.542;2023-08-12T03:38:54;103.90;;;95.10;;
2019;SDS011;1014;51.960;8.542;2023-08-12T03:41:23;104.73;;;94.40;;
2019;SDS011;1014;51.960;8.542;2023-08-12T03:43:52;97.70;;;89.13;;
2019;SDS011;1014;51.960;8.542;2023-08-12T03:46:19;95.20;;;86.77;;
2019;SDS011;1014;51.960;8.542;2023-08-12T03:48:46;96.70;;;88.50;;
2019;SDS011;1014;51.960;8.542;2023-08-12T03:51:13;103.80;;;94.73;;
2019;SDS011;1014;51.960;8.542;2023-08-12T03:53:40;101.87;;;93.97;;
2019;SDS011;1014;51.960;8.542;2023-08-12T03:56:07;110.47;;;100.23;;
2019;SDS011;1014;51.960;8.542;2023-08-12T03:58:35;106.57;;;97.30;;
2019;SDS011;1014;51.960;8.542;2023-08-12T04:01:02;104.00;;;95.40;;
2019;SDS011;1014;51.960;8.542;2023-08-12T04:03:29;114.03;;;101.53;;
2019;SDS011;1014;51.960;8.542;2023-08-12T04:05:56;119.60;;;107.43;;
2019;SDS011;1014;51.960;8.542;2023-08-12T04:08:23;109.87;;;99.77;;
2019;SDS011;1014;51.960;8.542;2023-08-12T04:10:51;126.63;;;112.83;;
2019;SDS011;1014;51.960;8.542;2023-08-12T04:13:18;131.43;;;108.50;;
2019;SDS011;1014;51.960;8.542;2023-08-12T04:15:49;132.13;;;108.50;;
2019;SDS011;1014;51.960;8.542;2023-08-12T04:18:18;115.70;;;103.90;;
2019;SDS011;1014;51.960;8.542;2023-08-12T04:20:45;128.83;;;108.90;;
2019;SDS011;1014;51.960;8.542;2023-08-12T04:23:13;135.40;;;111.00;;
2019;SDS011;1014;51.960;8.542;2023-08-12T04:25:40;117.20;;;104.97;;
2019;SDS011;1014;51.960;8.542;2023-08-12T04:28:07;123.07;;;109.90;;
2019;SDS011;1014;51.960;8.542;2023-08-12T04:30:34;115.33;;;103.43;;
2019;SDS011;1014;51.960;8.542;2023-08-12T04:33:03;115.83;;;105.30;;
2019;SDS011;1014;51.960;8.542;2023-08-12T04:35:30;114.90;;;103.63;;
2019;SDS011;1014;51.960;8.542;2023-08-12T04:37:58;122.20;;;109.60;;
2019;SDS011;1014;51.960;8.542;2023-08-12T04:40:25;123.90;;;105.97;;
2019;SDS011;1014;51.960;8.542;2023-08-12T04:42:52;128.30;;;110.57;;
2019;SDS011;1014;51.960;8.542;2023-08-12T04:45:19;123.97;;;110.67;;
2019;SDS011;1014;51.960;8.542;2023-08-12T04:47:47;133.27;;;110.83;;
2019;SDS011;1014;51.960;8.542;2023-08-12T04:50:15;123.73;;;105.97;;
2019;SDS011;1014;51.960;8.542;2023-08-12T04:52:42;146.07;;;108.10;;
2019;SDS011;1014;51.960;8.542;2023-08-12T04:55:09;116.80;;;104.63;;
2019;SDS011;1014;51.960;8.542;2023-08-12T04:57:36;139.40;;;111.80;;
2019;SDS011;1014;51.960;8.542;2023-08-12T05:00:04;117.73;;;104.50;;
2019;SDS011;1014;51.960;8.542;2023-08-12T05:02:33;119.30;;;106.80;;
2019;SDS011;1014;51.960;8.542;2023-08-12T05:05:00;117.50;;;103.03;;
2019;SDS011;1014;51.960;8.542;2023-08-12T05:07:29;136.67;;;105.83;;
2019;SDS011;1014;51.960;8.542;2023-08-12T05:09:59;146.80;;;108.40;;
2019;SDS011;1014;51.960;8.542;2023-08-12T05:12:26;123.77;;;107.47;;
2019;SDS011;1014;51.960;8.542;2023-08-12T05:14:53;115.80;;;103.23;;
2019;SDS011;1014;51.960;8.542;2023-08-12T05:17:20;126.13;;;103.70;;
2019;SDS011;1014;51.960;8.542;2023-08-12T05:19:47;109.83;;;94.50;;
2019;SDS011;1014;51.960;8.542;2023-08-12T05:22:15;113.27;;;101.07;;
2019;SDS011;1014;51.960;8.542;2023-08-12T05:24:43;141.80;;;108.83;;
2019;SDS011;1014;51.960;8.542;2023-08-12T05:27:10;124.30;;;104.23;;
2019;SDS011;1014;51.960;8.542;2023-08-12T05:29:37;108.70;;;97.93;;
2019;SDS011;1014;51.960;8.542;2023-08-12T05:32:04;117.50;;;99.97;;
2019;SDS011;1014;51.960;8.542;2023-08-12T05:34:31;112.13;;;99.73;;
2019;SDS011;1014;51.960;8.542;2023-08-12T05:36:58;129.03;;;104.77;;
2019;SDS011;1014;51.960;8.542;2023-08-12T05:39:25;114.50;;;102.27;;
2019;SDS011;1014;51.960;8.542;2023-08-12T05:41:54;115.63;;;103.80;;
2019;SDS011;1014;51.960;8.542;2023-08-12T05:44:21;111.70;;;99.50;;
2019;SDS011;1014;51.960;8.542;2023-08-12T05:46:48;110.50;;;98.70;;
2019;SDS011;1014;51.960;8.542;2023-08-12T05:49:15;108.57;;;96.97;;
2019;SDS011;1014;51.960;8.542;2023-08-12T05:51:42;115.50;;;102.20;;
2019;SDS011;1014;51.960;8.542;2023-08-12T05:54:11;101.43;;;91.43;;
2019;SDS011;1014;51.960;8.542;2023-08-12T05:56:38;112.87;;;94.93;;
2019;SDS011;1014;51.960;8.542;2023-08-12T05:59:07;108.07;;;97.53;;
2019;SDS011;1014;51.960;8.542;2023-08-12T06:01:34;105.37;;;94.63;;
2019;SDS011;1014;51.960;8.542;2023-08-12T06:04:03;102.77;;;91.93;;
2019;SDS011;1014;51.960;8.542;2023-08-12T06:06:30;95.90;;;86.43;;
2019;SDS011;1014;51.960;8.542;2023-08-12T06:08:57;98.83;;;89.27;;
2019;SDS011;1014;51.960;8.542;2023-08-12T06:11:24;101.27;;;91.70;;
2019;SDS011;1014;51.960;8.542;2023-08-12T06:13:51;102.47;;;91.57;;
2019;SDS011;1014;51.960;8.542;2023-08-12T06:16:20;93.13;;;84.40;;
2019;SDS011;1014;51.960;8.542;2023-08-12T06:18:47;98.53;;;89.37;;
2019;SDS011;1014;51.960;8.542;2023-08-12T06:21:14;89.97;;;81.47;;
2019;SDS011;1014;51.960;8.542;2023-08-12T06:23:41;98.20;;;89.07;;
2019;SDS011;1014;51.960;8.542;2023-08-12T06:26:08;96.10;;;87.53;;
2019;SDS011;1014;51.960;8.542;2023-08-12T06:28:35;86.63;;;78.93;;
2019;SDS011;1014;51.960;8.542;2023-08-12T06:31:03;92.50;;;83.87;;
2019;SDS011;1014;51.960;8.542;2023-08-12T06:33:31;85.87;;;78.47;;
2019;SDS011;1014;51.960;8.542;2023-08-12T06:35:58;78.03;;;71.17;;
2019;SDS011;1014;51.960;8.542;2023-08-12T06:38:25;73.67;;;67.87;;
2019;SDS011;1014;51.960;8.542;2023-08-12T06:40:52;67.33;;;61.73;;
2019;SDS011;1014;51.960;8.542;2023-08-12T06:43:19;70.20;;;64.00;;
2019;SDS011;1014;51.960;8.542;2023-08-12T06:45:46;64.33;;;59.33;;
2019;SDS011;1014;51.960;8.542;2023-08-12T06:48:13;63.33;;;58.57;;
2019;SDS011;1014;51.960;8.542;2023-08-12T06:50:42;61.53;;;56.83;;
2019;SDS011;1014;51.960;8.542;2023-08-12T06:53:10;61.33;;;56.63;;
2019;SDS011;1014;51.960;8.542;2023-08-12T06:55:43;55.03;;;50.80;;
2019;SDS011;1014;51.960;8.542;2023-08-12T06:58:10;47.97;;;44.17;;
2019;SDS011;1014;51.960;8.542;2023-08-12T07:00:37;51.40;;;47.20;;
2019;SDS011;1014;51.960;8.542;2023-08-12T07:03:04;47.77;;;44.37;;
2019;SDS011;1014;51.960;8.542;2023-08-12T07:05:31;45.27;;;42.07;;
2019;SDS011;1014;51.960;8.542;2023-08-12T07:07:59;50.83;;;47.23;;
2019;SDS011;1014;51.960;8.542;2023-08-12T07:10:26;47.63;;;44.23;;
2019;SDS011;1014;51.960;8.542;2023-08-12T07:12:54;49.20;;;45.50;;
2019;SDS011;1014;51.960;8.542;2023-08-12T07:15:21;47.27;;;43.70;;
2019;SDS011;1014;51.960;8.542;2023-08-12T07:17:48;44.70;;;41.50;;
2019;SDS011;1014;51.960;8.542;2023-08-12T07:20:15;45.97;;;42.77;;
2019;SDS011;1014;51.960;8.542;2023-08-12T07:22:42;44.57;;;41.47;;
2019;SDS011;1014;51.960;8.542;2023-08-12T07:25:11;45.07;;;41.80;;
2019;SDS011;1014;51.960;8.542;2023-08-12T07:27:38;42.50;;;39.57;;
2019;SDS011;1014;51.960;8.542;2023-08-12T07:30:05;41.43;;;38.33;;
2019;SDS011;1014;51.960;8.542;2023-08-12T07:32:32;39.60;;;36.70;;
2019;SDS011;1014;51.960;8.542;2023-08-12T07:34:59;39.87;;;37.03;;
2019;SDS011;1014;51.960;8.542;2023-08-12T07:37:26;40.43;;;37.63;;
2019;SDS011;1014;51.960;8.542;2023-08-12T07:39:53;40.03;;;37.33;;
2019;SDS011;1014;51.960;8.542;2023-08-12T07:42:22;40.00;;;37.17;;
2019;SDS011;1014;51.960;8.542;2023-08-12T07:44:49;40.13;;;37.57;;
2019;SDS011;1014;51.960;8.542;2023-08-12T07:47:16;38.43;;;35.73;;
2019;SDS011;1014;51.960;8.542;2023-08-12T07:49:43;39.47;;;36.83;;
2019;SDS011;1014;51.960;8.542;2023-08-12T07:52:10;38.37;;;35.87;;
2019;SDS011;1014;51.960;8.542;2023-08-12T07:54:37;36.60;;;34.00;;
2019;SDS011;1014;51.960;8.542;2023-08-12T07:57:04;36.50;;;34.10;;
2019;SDS011;1014;51.960;8.542;2023-08-12T07:59:33;36.73;;;34.40;;
2019;SDS011;1014;51.960;8.542;2023-08-12T08:02:00;36.73;;;33.87;;
2019;SDS011;1014;51.960;8.542;2023-08-12T08:04:27;40.20;;;37.40;;
2019;SDS011;1014;51.960;8.542;2023-08-12T08:06:54;39.20;;;36.60;;
2019;SDS011;1014;51.960;8.542;2023-08-12T08:09:21;39.07;;;36.27;;
2019;SDS011;1014;51.960;8.542;2023-08-12T08:11:48;38.40;;;35.70;;
2019;SDS011;1014;51.960;8.542;2023-08-12T08:14:15;38.63;;;35.93;;
2019;SDS011;1014;51.960;8.542;2023-08-12T08:16:43;39.10;;;36.30;;
2019;SDS011;1014;51.960;8.542;2023-08-12T08:19:10;39.33;;;36.50;;
2019;SDS011;1014;51.960;8.542;2023-08-12T08:21:38;41.47;;;38.50;;
2019;SDS011;1014;51.960;8.542;2023-08-12T08:24:05;40.00;;;37.30;;
2019;SDS011;1014;51.960;8.542;2023-08-12T08:26:33;39.80;;;37.00;;
2019;SDS011;1014;51.960;8.542;2023-08-12T08:29:00;39.20;;;36.20;;
2019;SDS011;1014;51.960;8.542;2023-08-12T08:31:28;40.70;;;37.60;;
2019;SDS011;1014;51.960;8.542;2023-08-12T08:33:56;41.37;;;38.37;;
2019;SDS011;1014;51.960;8.542;2023-08-12T08:36:23;40.97;;;37.80;;
2019;SDS011;1014;51.960;8.542;2023-08-12T08:38:50;41.03;;;38.13;;
2019;SDS011;1014;51.960;8.542;2023-08-12T08:41:17;40.27;;;37.40;;
2019;SDS011;1014;51.960;8.542;2023-08-12T08:43:44;41.33;;;38.10;;
2019;SDS011;1014;51.960;8.542;2023-08-12T08:46:14;41.03;;;38.13;;
2019;SDS011;1014;51.960;8.542;2023-08-12T08:48:42;39.30;;;36.43;;
2019;SDS011;1014;51.960;8.542;2023-08-12T08:51:11;43.13;;;40.03;;
2019;SDS011;1014;51.960;8.542;2023-08-12T08:53:38;43.00;;;39.87;;
2019;SDS011;1014;51.960;8.542;2023-08-12T08:56:06;43.30;;;40.00;;
2019;SDS011;1014;51.960;8.542;2023-08-12T08:58:36;44.40;;;40.90;;
2019;SDS011;1014;51.960;8.542;2023-08-12T09:01:03;42.70;;;39.40;;
2019;SDS011;1014;51.960;8.542;2023-08-12T09:03:32;45.57;;;42.07;;
2019;SDS011;1014;51.960;8.542;2023-08-12T09:06:00;45.10;;;41.60;;
2019;SDS011;1014;51.960;8.542;2023-08-12T09:08:29;43.07;;;39.80;;
2019;SDS011;1014;51.960;8.542;2023-08-12T09:10:58;46.03;;;42.53;;
2019;SDS011;1014;51.960;8.542;2023-08-12T09:13:26;45.30;;;41.60;;
2019;SDS011;1014;51.960;8.542;2023-08-12T09:15:53;46.77;;;43.33;;
2019;SDS011;1014;51.960;8.542;2023-08-12T09:18:20;47.60;;;44.00;;
2019;SDS011;1014;51.960;8.542;2023-08-12T09:20:49;47.37;;;43.70;;
2019;SDS011;1014;51.960;8.542;2023-08-12T09:23:17;44.03;;;40.83;;
2019;SDS011;1014;51.960;8.542;2023-08-12T09:25:45;40.27;;;37.43;;
2019;SDS011;1014;51.960;8.542;2023-08-12T09:28:13;36.83;;;34.23;;
2019;SDS011;1014;51.960;8.542;2023-08-12T09:30:40;37.57;;;34.97;;
2019;SDS011;1014;51.960;8.542;2023-08-12T09:33:08;31.70;;;29.47;;
2019;SDS011;1014;51.960;8.542;2023-08-12T09:35:36;28.27;;;26.57;;
2019;SDS011;1014;51.960;8.542;2023-08-12T09:38:04;29.30;;;27.57;;
2019;SDS011;1014;51.960;8.542;2023-08-12T09:40:32;29.13;;;27.30;;
2019;SDS011;1014;51.960;8.542;2023-08-12T09:43:01;26.67;;;25.03;;
2019;SDS011;1014;51.960;8.542;2023-08-12T09:45:29;24.30;;;23.00;;
2019;SDS011;1014;51.960;8.542;2023-08-12T09:47:56;24.53;;;23.13;;
2019;SDS011;1014;51.960;8.542;2023-08-12T09:50:24;23.67;;;22.40;;
2019;SDS011;1014;51.960;8.542;2023-08-12T09:52:52;23.37;;;22.00;;
2019;SDS011;1014;51.960;8.542;2023-08-12T09:55:20;23.73;;;22.43;;
2019;SDS011;1014;51.960;8.542;2023-08-12T09:57:48;21.93;;;20.73;;
2019;SDS011;1014;51.960;8.542;2023-08-12T10:00:16;23.03;;;21.73;;
2019;SDS011;1014;51.960;8.542;2023-08-12T10:02:44;24.90;;;23.50;;
2019;SDS011;1014;51.960;8.542;2023-08-12T10:05:12;22.20;;;20.90;;
2019;SDS011;1014;51.960;8.542;2023-08-12T10:07:39;25.90;;;24.40;;
2019;SDS011;1014;51.960;8.542;2023-08-12T10:10:06;23.47;;;22.20;;
2019;SDS011;1014;51.960;8.542;2023-08-12T10:12:34;22.90;;;21.70;;
2019;SDS011;1014;51.960;8.542;2023-08-12T10:15:03;22.30;;;21.10;;
2019;SDS011;1014;51.960;8.542;2023-08-12T10:17:32;22.77;;;21.60;;
2019;SDS011;1014;51.960;8.542;2023-08-12T10:20:00;21.40;;;20.30;;
2019;SDS011;1014;51.960;8.542;2023-08-12T10:22:29;20.73;;;19.70;;
2019;SDS011;1014;51.960;8.542;2023-08-12T10:24:56;21.77;;;20.57;;
2019;SDS011;1014;51.960;8.542;2023-08-12T10:27:25;20.67;;;19.57;;
2019;SDS011;1014;51.960;8.542;2023-08-12T10:29:52;19.97;;;18.80;;
2019;SDS011;1014;51.960;8.542;2023-08-12T10:32:19;20.43;;;19.43;;
2019;SDS011;1014;51.960;8.542;2023-08-12T10:34:54;21.03;;;20.00;;
2019;SDS011;1014;51.960;8.542;2023-08-12T10:37:22;20.60;;;19.30;;
2019;SDS011;1014;51.960;8.542;2023-08-12T10:39:51;20.10;;;18.90;;
2019;SDS011;1014;51.960;8.542;2023-08-12T10:45:03;19.77;;;18.77;;
2019;SDS011;1014;51.960;8.542;2023-08-12T10:47:30;19.37;;;18.47;;
2019;SDS011;1014;51.960;8.542;2023-08-12T10:50:01;20.10;;;19.10;;
2019;SDS011;1014;51.960;8.542;2023-08-12T10:52:28;18.37;;;17.47;;
2019;SDS011;1014;51.960;8.542;2023-08-12T10:54:57;19.93;;;18.63;;
2019;SDS011;1014;51.960;8.542;2023-08-12T10:57:42;19.07;;;18.07;;
2019;SDS011;1014;51.960;8.542;2023-08-12T11:00:10;18.40;;;17.50;;
2019;SDS011;1014;51.960;8.542;2023-08-12T11:02:38;18.20;;;17.30;;
2019;SDS011;1014;51.960;8.542;2023-08-12T11:05:08;18.53;;;17.53;;
2019;SDS011;1014;51.960;8.542;2023-08-12T11:07:37;17.77;;;16.77;;
2019;SDS011;1014;51.960;8.542;2023-08-12T11:10:05;18.13;;;17.23;;
2019;SDS011;1014;51.960;8.542;2023-08-12T11:12:33;17.87;;;16.90;;
2019;SDS011;1014;51.960;8.542;2023-08-12T11:15:01;18.40;;;17.23;;
2019;SDS011;1014;51.960;8.542;2023-08-12T11:17:29;18.40;;;17.50;;
2019;SDS011;1014;51.960;8.542;2023-08-12T11:19:56;17.50;;;16.70;;
2019;SDS011;1014;51.960;8.542;2023-08-12T11:22:25;18.30;;;17.30;;
2019;SDS011;1014;51.960;8.542;2023-08-12T11:24:52;18.50;;;17.60;;
2019;SDS011;1014;51.960;8.542;2023-08-12T11:27:20;17.87;;;16.97;;
2019;SDS011;1014;51.960;8.542;2023-08-12T11:29:47;17.50;;;16.63;;
2019;SDS011;1014;51.960;8.542;2023-08-12T11:32:15;18.00;;;17.10;;
2019;SDS011;1014;51.960;8.542;2023-08-12T11:34:42;18.63;;;17.73;;
2019;SDS011;1014;51.960;8.542;2023-08-12T11:37:09;18.77;;;17.70;;
2019;SDS011;1014;51.960;8.542;2023-08-12T11:39:38;18.10;;;17.30;;
2019;SDS011;1014;51.960;8.542;2023-08-12T11:42:05;17.60;;;16.80;;
2019;SDS011;1014;51.960;8.542;2023-08-12T11:44:32;17.77;;;16.87;;
2019;SDS011;1014;51.960;8.542;2023-08-12T11:46:59;17.30;;;16.50;;
2019;SDS011;1014;51.960;8.542;2023-08-12T11:49:26;18.37;;;17.37;;
2019;SDS011;1014;51.960;8.542;2023-08-12T11:51:53;18.30;;;17.50;;
2019;SDS011;1014;51.960;8.542;2023-08-12T11:54:21;18.17;;;17.27;;
2019;SDS011;1014;51.960;8.542;2023-08-12T11:56:49;18.23;;;17.33;;
2019;SDS011;1014;51.960;8.542;2023-08-12T11:59:16;17.90;;;17.00;;
2019;SDS011;1014;51.960;8.542;2023-08-12T12:01:46;17.87;;;17.07;;
2019;SDS011;1014;51.960;8.542;2023-08-12T12:04:14;18.17;;;17.27;;
2019;SDS011;1014;51.960;8.542;2023-08-12T12:06:42;18.07;;;17.27;;
2019;SDS011;1014;51.960;8.542;2023-08-12T12:09:09;18.10;;;17.20;;
2019;SDS011;1014;51.960;8.542;2023-08-12T12:11:38;18.53;;;17.63;;
2019;SDS011;1014;51.960;8.542;2023-08-12T12:14:07;19.07;;;18.07;;
2019;SDS011;1014;51.960;8.542;2023-08-12T12:16:38;18.90;;;17.90;;
2019;SDS011;1014;51.960;8.542;2023-08-12T12:19:08;18.40;;;17.50;;
2019;SDS011;1014;51.960;8.542;2023-08-12T12:21:39;18.73;;;17.50;;
2019;SDS011;1014;51.960;8.542;2023-08-12T12:24:07;18.30;;;17.40;;
2019;SDS011;1014;51.960;8.542;2023-08-12T12:26:34;18.10;;;17.20;;
2019;SDS011;1014;51.960;8.542;2023-08-12T12:29:02;18.10;;;17.20;;
2019;SDS011;1014;51.960;8.542;2023-08-12T12:31:32;18.13;;;17.23;;
2019;SDS011;1014;51.960;8.542;2023-08-12T12:34:00;17.80;;;16.90;;
2019;SDS011;1014;51.960;8.542;2023-08-12T12:36:30;17.87;;;16.97;;
2019;SDS011;1014;51.960;8.542;2023-08-12T12:38:57;19.53;;;18.33;;
2019;SDS011;1014;51.960;8.542;2023-08-12T12:41:24;17.63;;;16.83;;
2019;SDS011;1014;51.960;8.542;2023-08-12T12:43:51;18.53;;;17.37;;
2019;SDS011;1014;51.960;8.542;2023-08-12T12:46:18;17.87;;;16.87;;
2019;SDS011;1014;51.960;8.542;2023-08-12T12:48:47;17.77;;;16.90;;
2019;SDS011;1014;51.960;8.542;2023-08-12T12:51:14;18.57;;;17.67;;
2019;SDS011;1014;51.960;8.542;2023-08-12T12:53:41;17.63;;;16.73;;
2019;SDS011;1014;51.960;8.542;2023-08-12T12:56:08;17.80;;;16.90;;
2019;SDS011;1014;51.960;8.542;2023-08-12T12:58:36;18.00;;;17.20;;
2019;SDS011;1014;51.960;8.542;2023-08-12T13:01:04;19.10;;;18.17;;
2019;SDS011;1014;51.960;8.542;2023-08-12T13:03:31;18.10;;;17.20;;
2019;SDS011;1014;51.960;8.542;2023-08-12T13:06:00;18.70;;;17.70;;
2019;SDS011;1014;51.960;8.542;2023-08-12T13:08:29;18.13;;;17.20;;
2019;SDS011;1014;51.960;8.542;2023-08-12T13:10:56;17.20;;;16.40;;
2019;SDS011;1014;51.960;8.542;2023-08-12T13:13:23;18.57;;;17.67;;
2019;SDS011;1014;51.960;8.542;2023-08-12T13:15:51;18.00;;;16.90;;
2019;SDS011;1014;51.960;8.542;2023-08-12T13:18:18;17.73;;;16.93;;
2019;SDS011;1014;51.960;8.542;2023-08-12T13:20:45;18.50;;;17.50;;
2019;SDS011;1014;51.960;8.542;2023-08-12T13:23:13;17.67;;;16.77;;
2019;SDS011;1014;51.960;8.542;2023-08-12T13:25:40;18.17;;;17.07;;
2019;SDS011;1014;51.960;8.542;2023-08-12T13:28:07;22.57;;;21.00;;
2019;SDS011;1014;51.960;8.542;2023-08-12T13:30:34;37.30;;;35.40;;
2019;SDS011;1014;51.960;8.542;2023-08-12T13:33:02;45.77;;;42.47;;
2019;SDS011;1014;51.960;8.542;2023-08-12T13:35:29;44.10;;;41.70;;
2019;SDS011;1014;51.960;8.542;2023-08-12T13:37:57;42.57;;;40.37;;
2019;SDS011;1014;51.960;8.542;2023-08-12T13:40:25;42.30;;;40.20;;
2019;SDS011;1014;51.960;8.542;2023-08-12T13:42:52;42.60;;;40.53;;
2019;SDS011;1014;51.960;8.542;2023-08-12T13:45:20;39.07;;;37.27;;
2019;SDS011;1014;51.960;8.542;2023-08-12T13:47:48;39.60;;;37.70;;
2019;SDS011;1014;51.960;8.542;2023-08-12T13:50:15;37.30;;;35.50;;
2019;SDS011;1014;51.960;8.542;2023-08-12T13:52:42;36.13;;;34.43;;
2019;SDS011;1014;51.960;8.542;2023-08-12T13:55:09;35.97;;;34.37;;
2019;SDS011;1014;51.960;8.542;2023-08-12T13:57:38;34.00;;;32.30;;
2019;SDS011;1014;51.960;8.542;2023-08-12T14:00:05;24.50;;;23.40;;
2019;SDS011;1014;51.960;8.542;2023-08-12T14:02:34;23.80;;;22.60;;
2019;SDS011;1014;51.960;8.542;2023-08-12T14:05:02;23.17;;;22.07;;
2019;SDS011;1014;51.960;8.542;2023-08-12T14:07:30;23.70;;;22.50;;
2019;SDS011;1014;51.960;8.542;2023-08-12T14:09:57;23.87;;;22.77;;
2019;SDS011;1014;51.960;8.542;2023-08-12T14:12:24;21.43;;;20.33;;
2019;SDS011;1014;51.960;8.542;2023-08-12T14:14:53;22.30;;;21.10;;
2019;SDS011;1014;51.960;8.542;2023-08-12T14:17:20;21.20;;;20.20;;
2019;SDS011;1014;51.960;8.542;2023-08-12T14:19:48;20.50;;;19.40;;
2019;SDS011;1014;51.960;8.542;2023-08-12T14:22:16;19.80;;;18.90;;
2019;SDS011;1014;51.960;8.542;2023-08-12T14:24:43;19.60;;;18.70;;
2019;SDS011;1014;51.960;8.542;2023-08-12T14:27:10;20.40;;;19.40;;
2019;SDS011;1014;51.960;8.542;2023-08-12T14:29:37;19.60;;;18.70;;
2019;SDS011;1014;51.960;8.542;2023-08-12T14:32:06;19.80;;;18.80;;
2019;SDS011;1014;51.960;8.542;2023-08-12T14:34:33;19.33;;;18.23;;
2019;SDS011;1014;51.960;8.542;2023-08-12T14:37:01;20.03;;;19.03;;
2019;SDS011;1014;51.960;8.542;2023-08-12T14:39:28;20.90;;;19.87;;
2019;SDS011;1014;51.960;8.542;2023-08-12T14:41:55;19.67;;;18.60;;
2019;SDS011;1014;51.960;8.542;2023-08-12T14:44:22;20.63;;;19.53;;
2019;SDS011;1014;51.960;8.542;2023-08-12T14:46:50;19.30;;;18.40;;
2019;SDS011;1014;51.960;8.542;2023-08-12T14:49:19;18.70;;;17.70;;